Observation data for Dora on 05/24/2019      Previous  Date  Next       Current Mesonet Observations  Soil Data  Daily Summary Page  Observations in Plain Language
KDR1 240500Z 06005KT 17/07 A2999 RMK A01 T01740070  RH  052%=      5-min Rain = 0
KDR1 240505Z 07004KT 17/06 A2999 RMK A01 T01680063  RH  051%=      5-min Rain = 0
KDR1 240510Z 07004KT 17/06 A2999 RMK A01 T01660064  RH  052%=      5-min Rain = 0
KDR1 240515Z 08003KT 17/07 A2999 RMK A01 T01670065  RH  052%=      5-min Rain = 0
KDR1 240520Z 09002KT 17/07 A2999 RMK A01 T01690067  RH  052%=      5-min Rain = 0
KDR1 240525Z 09000KT 17/06 A2999 RMK A01 T01650061  RH  052%=      5-min Rain = 0
KDR1 240530Z 31001KT 16/05 A2998 RMK A01 T01620053  RH  049%=      5-min Rain = 0
KDR1 240535Z 29004KT 15/03 A2997 RMK A01 T01500032  RH  046%=      5-min Rain = 0
KDR1 240540Z 28005KT 15/03 A2997 RMK A01 T01470030  RH  046%=      5-min Rain = 0
KDR1 240545Z 28003KT 15/03 A2997 RMK A01 T01450032  RH  048%=      5-min Rain = 0
KDR1 240550Z 27002KT 15/04 A2998 RMK A01 T01490035  RH  047%=      5-min Rain = 0
KDR1 240555Z 19002KT 14/02 A2998 RMK A01 T01410024  RH  046%=      5-min Rain = 0
KDR1 240600Z 20003KT 13/02 A2999 RMK A01 T01340020  RH  047%=      5-min Rain = 0
KDR1 240605Z 21003KT 14/02 A2999 RMK A01 T01390022  RH  046%=      5-min Rain = 0
KDR1 240610Z 21002KT 14/03 A2999 RMK A01 T01410028  RH  047%=      5-min Rain = 0
KDR1 240615Z 20001KT 15/04 A2999 RMK A01 T01520038  RH  047%=      5-min Rain = 0
KDR1 240620Z 17001KT 16/04 A2999 RMK A01 T01560043  RH  048%=      5-min Rain = 0
KDR1 240625Z 17002KT 16/05 A2999 RMK A01 T01620047  RH  047%=      5-min Rain = 0
KDR1 240630Z 17002KT 16/04 A30 RMK A01 T01620042  RH  046%=      5-min Rain = 0
KDR1 240635Z 17004KT 15/03 A30 RMK A01 T01460026  RH  045%=      5-min Rain = 0
KDR1 240640Z 13005KT 13/03 A30 RMK A01 T01290026  RH  051%=      5-min Rain = 0
KDR1 240645Z 14005KT 13/04 A30 RMK A01 T01340042  RH  055%=      5-min Rain = 0
KDR1 240650Z 13006KT 13/05 A30 RMK A01 T01290053  RH  061%=      5-min Rain = 0
KDR1 240655Z 15005KT 13/06 A2999 RMK A01 T01250061  RH  066%=      5-min Rain = 0
KDR1 240700Z 18005KT 13/08 A2999 RMK A01 T01300077  RH  072%=      5-min Rain = 0
KDR1 240705Z 19006KT 13/09 A2998 RMK A01 T01340085  RH  074%=      5-min Rain = 0
KDR1 240710Z 18006KT 13/09 A2998 RMK A01 T01320085  RH  075%=      5-min Rain = 0
KDR1 240715Z 22006KT 13/08 A2998 RMK A01 T01290078  RH  073%=      5-min Rain = 0
KDR1 240720Z 24007KT 12/07 A2997 RMK A01 T01240073  RH  073%=      5-min Rain = 0
KDR1 240725Z 24007KT 12/07 A2997 RMK A01 T01240069  RH  071%=      5-min Rain = 0
KDR1 240730Z 24007KT 12/07 A2997 RMK A01 T01240067  RH  070%=      5-min Rain = 0
KDR1 240735Z 24007KT 12/06 A2997 RMK A01 T01230061  RH  068%=      5-min Rain = 0
KDR1 240740Z 24007KT 12/06 A2996 RMK A01 T01210058  RH  067%=      5-min Rain = 0
KDR1 240745Z 24007KT 12/06 A2996 RMK A01 T01230058  RH  066%=      5-min Rain = 0
KDR1 240750Z 24008KT 12/05 A2996 RMK A01 T01210049  RH  063%=      5-min Rain = 0
KDR1 240755Z 25008KT 12/04 A2997 RMK A01 T01180044  RH  062%=      5-min Rain = 0
KDR1 240800Z 24008KT 12/05 A2997 RMK A01 T01170045  RH  062%=      5-min Rain = 0
KDR1 240805Z 24007KT 12/04 A2997 RMK A01 T01170043  RH  062%=      5-min Rain = 0
KDR1 240810Z 24007KT 12/04 A2997 RMK A01 T01150040  RH  061%=      5-min Rain = 0
KDR1 240815Z 24006KT 12/04 A2997 RMK A01 T01150041  RH  062%=      5-min Rain = 0
KDR1 240820Z 23005KT 12/04 A2997 RMK A01 T01190043  RH  061%=      5-min Rain = 0
KDR1 240825Z 23005KT 12/04 A2997 RMK A01 T01200038  RH  058%=      5-min Rain = 0
KDR1 240830Z 23005KT 12/04 A2998 RMK A01 T01230037  RH  057%=      5-min Rain = 0
KDR1 240835Z 24004KT 12/04 A2998 RMK A01 T01230036  RH  056%=      5-min Rain = 0
KDR1 240840Z 24005KT 12/03 A2998 RMK A01 T01240031  RH  054%=      5-min Rain = 0
KDR1 240845Z 23004KT 12/02 A2998 RMK A01 T01210020  RH  051%=      5-min Rain = 0
KDR1 240850Z 23004KT 12/01 A2998 RMK A01 T01230014  RH  048%=      5-min Rain = 0
KDR1 240855Z 24005KT 12/01 A2998 RMK A01 T01240011  RH  047%=      5-min Rain = 0
KDR1 240900Z 25005KT 12/01 A2998 RMK A01 T01240012  RH  047%=      5-min Rain = 0
KDR1 240905Z 25006KT 13/01 A2998 RMK A01 T01280011  RH  045%=      5-min Rain = 0
KDR1 240910Z 25006KT 13/01 A2998 RMK A01 T01310007  RH  043%=      5-min Rain = 0
KDR1 240915Z 25006KT 13/00 A2998 RMK A01 T01310004  RH  042%=      5-min Rain = 0
KDR1 240920Z 25006KT 13/00 A2998 RMK A01 T01300000  RH  041%=      5-min Rain = 0
KDR1 240925Z 26007KT 13/M00 A2998 RMK A01 T01311001  RH  041%=      5-min Rain = 0
KDR1 240930Z 25007KT 13/M00 A2998 RMK A01 T01341003  RH  039%=      5-min Rain = 0
KDR1 240935Z 25006KT 13/M00 A2998 RMK A01 T01331004  RH  039%=      5-min Rain = 0
KDR1 240940Z 26006KT 13/M01 A2998 RMK A01 T01341005  RH  039%=      5-min Rain = 0
KDR1 240945Z 26006KT 14/M01 A2998 RMK A01 T01351007  RH  038%=      5-min Rain = 0
KDR1 240950Z 26007KT 13/M01 A2998 RMK A01 T01331009  RH  038%=      5-min Rain = 0
KDR1 240955Z 26007KT 14/M01 A2999 RMK A01 T01371009  RH  037%=      5-min Rain = 0
KDR1 241000Z 26007KT 14/M01 A2999 RMK A01 T01371009  RH  037%=      5-min Rain = 0
KDR1 241005Z 26006KT 14/M01 A2999 RMK A01 T01401012  RH  035%=      5-min Rain = 0
KDR1 241010Z 26006KT 14/M01 A2999 RMK A01 T01391012  RH  036%=      5-min Rain = 0
KDR1 241015Z 25005KT 14/M01 A2999 RMK A01 T01401014  RH  035%=      5-min Rain = 0
KDR1 241020Z 26005KT 14/M02 A2999 RMK A01 T01431015  RH  034%=      5-min Rain = 0
KDR1 241025Z 27005KT 14/M01 A2999 RMK A01 T01441014  RH  034%=      5-min Rain = 0
KDR1 241030Z 02007KT 15/M01 A30 RMK A01 T01491007  RH  035%=      5-min Rain = 0
KDR1 241035Z 03005KT 15/00 A2999 RMK A01 T01510002  RH  037%=      5-min Rain = 0
KDR1 241040Z 04005KT 15/01 A30 RMK A01 T01470009  RH  039%=      5-min Rain = 0
KDR1 241045Z 06005KT 15/02 A30 RMK A01 T01460023  RH  044%=      5-min Rain = 0
KDR1 241050Z 07003KT 14/05 A30 RMK A01 T01430049  RH  054%=      5-min Rain = 0
KDR1 241055Z 09005KT 14/06 A30 RMK A01 T01370055  RH  059%=      5-min Rain = 0
KDR1 241100Z 09005KT 13/06 A30 RMK A01 T01330061  RH  063%=      5-min Rain = 0
KDR1 241105Z 10005KT 13/07 A30 RMK A01 T01330069  RH  067%=      5-min Rain = 0
KDR1 241110Z 08002KT 13/07 A30 RMK A01 T01320070  RH  068%=      5-min Rain = 0
KDR1 241115Z 16000KT 13/06 A30 RMK A01 T01270062  RH  066%=      5-min Rain = 0
KDR1 241120Z 31004KT 12/06 A30 RMK A01 T01210058  RH  067%=      5-min Rain = 0
KDR1 241125Z 33005KT 12/07 A30 RMK A01 T01190067  RH  072%=      5-min Rain = 0
KDR1 241130Z 01001KT 12/07 A3001 RMK A01 T01150070  RH  076%=      5-min Rain = 0
KDR1 241135Z 01003KT 12/08 A3001 RMK A01 T01150075  RH  078%=      5-min Rain = 0
KDR1 241140Z 00002KT 12/08 A3001 RMK A01 T01150075  RH  078%=      5-min Rain = 0
KDR1 241145Z 01000KT 12/08 A3001 RMK A01 T01160075  RH  078%=      5-min Rain = 0
KDR1 241150Z 00000KT 12/08 A3001 RMK A01 T01190078  RH  078%=      5-min Rain = 0
KDR1 241155Z 03001KT 12/08 A3001 RMK A01 T01210079  RH  077%=      5-min Rain = 0
KDR1 241200Z 14001KT 13/09 A3001 RMK A01 T01260090  RH  081%=      5-min Rain = 0
KDR1 241205Z 16003KT 12/08 A3002 RMK A01 T01230078  RH  076%=      5-min Rain = 0
KDR1 241210Z 16002KT 12/07 A3002 RMK A01 T01190074  RH  076%=      5-min Rain = 0
KDR1 241215Z 19002KT 12/07 A3002 RMK A01 T01200065  RH  071%=      5-min Rain = 0
KDR1 241220Z 21002KT 12/06 A3002 RMK A01 T01230060  RH  067%=      5-min Rain = 0
KDR1 241225Z 23002KT 12/05 A3002 RMK A01 T01230053  RH  064%=      5-min Rain = 0
KDR1 241230Z 23001KT 13/05 A3002 RMK A01 T01250053  RH  063%=      5-min Rain = 0
KDR1 241235Z 25004KT 13/06 A3003 RMK A01 T01270057  RH  064%=      5-min Rain = 0
KDR1 241240Z 28005KT 13/06 A3003 RMK A01 T01290062  RH  065%=      5-min Rain = 0
KDR1 241245Z 29006KT 13/07 A3003 RMK A01 T01310071  RH  069%=      5-min Rain = 0
KDR1 241250Z 29005KT 14/08 A3003 RMK A01 T01350077  RH  070%=      5-min Rain = 0
KDR1 241255Z 28005KT 14/08 A3003 RMK A01 T01380079  RH  070%=      5-min Rain = 0
KDR1 241300Z 27004KT 14/08 A3003 RMK A01 T01400079  RH  069%=      5-min Rain = 0
KDR1 241305Z 26003KT 15/08 A3003 RMK A01 T01450080  RH  067%=      5-min Rain = 0
KDR1 241310Z 26002KT 15/08 A3003 RMK A01 T01520081  RH  064%=      5-min Rain = 0
KDR1 241315Z 27001KT 16/08 A3003 RMK A01 T01560079  RH  062%=      5-min Rain = 0
KDR1 241320Z 27001KT 16/08 A3003 RMK A01 T01620078  RH  059%=      5-min Rain = 0
KDR1 241325Z 29002KT 17/08 A3003 RMK A01 T01650076  RH  057%=      5-min Rain = 0
KDR1 241330Z 28002KT 17/07 A3004 RMK A01 T01700073  RH  054%=      5-min Rain = 0
KDR1 241335Z 29003KT 18/05 A3004 RMK A01 T01750050  RH  045%=      5-min Rain = 0
KDR1 241340Z 30004KT 18/02 A3004 RMK A01 T01810016  RH  034%=      5-min Rain = 0
KDR1 241345Z 33005KT 18/02 A3004 RMK A01 T01830016  RH  033%=      5-min Rain = 0
KDR1 241350Z 32006KT 18/01 A3004 RMK A01 T01830013  RH  032%=      5-min Rain = 0
KDR1 241355Z 33007KT 18/01 A3004 RMK A01 T01840012  RH  032%=      5-min Rain = 0
KDR1 241400Z 31007KT 19/M01 A3004 RMK A01 T01861007  RH  027%=      5-min Rain = 0
KDR1 241405Z 33007KT 19/M01 A3004 RMK A01 T01871005  RH  028%=      5-min Rain = 0
KDR1 241410Z 32007KT 19/00 A3004 RMK A01 T01880003  RH  029%=      5-min Rain = 0
KDR1 241415Z 33008KT 19/01 A3004 RMK A01 T01910005  RH  029%=      5-min Rain = 0
KDR1 241420Z 33007KT 20/00 A3004 RMK A01 T01950003  RH  028%=      5-min Rain = 0
KDR1 241425Z 33007KT 20/M01 A3004 RMK A01 T01951007  RH  026%=      5-min Rain = 0
KDR1 241430Z 32007KT 20/M01 A3004 RMK A01 T01971013  RH  024%=      5-min Rain = 0
KDR1 241435Z 34007KT 20/M01 A3004 RMK A01 T02001011  RH  024%=      5-min Rain = 0
KDR1 241440Z 34007KT 20/M01 A3004 RMK A01 T02041011  RH  024%=      5-min Rain = 0
KDR1 241445Z 35007KT 21/M02 A3004 RMK A01 T02061017  RH  022%=      5-min Rain = 0
KDR1 241450Z 34006KT 21/M02 A3004 RMK A01 T02111024  RH  021%=      5-min Rain = 0
KDR1 241455Z 33007KT 21/M03 A3004 RMK A01 T02111034  RH  019%=      5-min Rain = 0
KDR1 241500Z 33007KT 21/M04 A3004 RMK A01 T02111035  RH  019%=      5-min Rain = 0
KDR1 241505Z 33006KT 22/M04 A3004 RMK A01 T02151036  RH  018%=      5-min Rain = 0
KDR1 241510Z 35005KT 22/M03 A3004 RMK A01 T02151033  RH  019%=      5-min Rain = 0
KDR1 241515Z 35004KT 22/M03 A3004 RMK A01 T02211029  RH  019%=      5-min Rain = 0
KDR1 241520Z 35003KT 22/M03 A3004 RMK A01 T02231032  RH  018%=      5-min Rain = 0
KDR1 241525Z 33004KT 23/M03 A3004 RMK A01 T02271028  RH  018%=      5-min Rain = 0
KDR1 241530Z 01004KT 22/M02 A3004 RMK A01 T02231022  RH  019%=      5-min Rain = 0
KDR1 241535Z 02004KT 23/M01 A3004 RMK A01 T02311013  RH  020%=      5-min Rain = 0
KDR1 241540Z 02004KT 23/M01 A3004 RMK A01 T02331013  RH  020%=      5-min Rain = 0
KDR1 241545Z 04004KT 23/M02 A3004 RMK A01 T02311019  RH  019%=      5-min Rain = 0
KDR1 241550Z 04004KT 23/M02 A3004 RMK A01 T02341021  RH  018%=      5-min Rain = 0
KDR1 241555Z 03003KT 24/M02 A3004 RMK A01 T02401020  RH  018%=      5-min Rain = 0
KDR1 241600Z 34003KT 24/M02 A3004 RMK A01 T02421022  RH  017%=      5-min Rain = 0
KDR1 241605Z 33003KT 24/M03 A3004 RMK A01 T02441027  RH  017%=      5-min Rain = 0
KDR1 241610Z 29003KT 24/M03 A3004 RMK A01 T02431034  RH  016%=      5-min Rain = 0
KDR1 241615Z 04003KT 24/M03 A3004 RMK A01 T02441029  RH  016%=      5-min Rain = 0
KDR1 241620Z 09001KT 25/M03 A3004 RMK A01 T02481034  RH  015%=      5-min Rain = 0
KDR1 241625Z 22002KT 25/M04 A3004 RMK A01 T02491038  RH  015%=      5-min Rain = 0
KDR1 241630Z 24003KT 25/M04 A3004 RMK A01 T02511044  RH  014%=      5-min Rain = 0
KDR1 241635Z 31004KT 26/M04 A3004 RMK A01 T02561041  RH  014%=      5-min Rain = 0
KDR1 241640Z 31003KT 25/M04 A3004 RMK A01 T02531044  RH  014%=      5-min Rain = 0
KDR1 241645Z 31004KT 26/M04 A3004 RMK A01 T02601038  RH  014%=      5-min Rain = 0
KDR1 241650Z 31003KT 26/M04 A3004 RMK A01 T02571041  RH  014%=      5-min Rain = 0
KDR1 241655Z 24002KT 27/M04 A3004 RMK A01 T02661041  RH  013%=      5-min Rain = 0
KDR1 241700Z 18003KT 27/M05 A3004 RMK A01 T02691046  RH  012%=      5-min Rain = 0
KDR1 241705Z 12004KT 26/M04 A3003 RMK A01 T02611043  RH  013%=      5-min Rain = 0
KDR1 241710Z 11005KT 27/M05 A3003 RMK A01 T02651045  RH  013%=      5-min Rain = 0
KDR1 241715Z 13003KT 26/M05 A3003 RMK A01 T02601049  RH  013%=      5-min Rain = 0
KDR1 241720Z 18006KT 27/M05 A3003 RMK A01 T02691046  RH  012%=      5-min Rain = 0
KDR1 241725Z 20004KT 27/M05 A3003 RMK A01 T02651049  RH  012%=      5-min Rain = 0
KDR1 241730Z 20004KT 27/M05 A3003 RMK A01 T02691054  RH  012%=      5-min Rain = 0
KDR1 241735Z 15003KT 27/M06 A3003 RMK A01 T02741062  RH  011%=      5-min Rain = 0
KDR1 241740Z 17001G6KT 27/M06 A3003 RMK A01 T02741062  RH  011%=      5-min Rain = 0
KDR1 241745Z 14005G10KT 28/M06 A3002 RMK A01 T02791058  RH  011%=      5-min Rain = 0
KDR1 241750Z 18009KT 28/M06 A3002 RMK A01 T02781058  RH  011%=      5-min Rain = 0
KDR1 241755Z 16004G9KT 28/M06 A3002 RMK A01 T02801060  RH  010%=      5-min Rain = 0
KDR1 241800Z 24004G9KT 28/M06 A3002 RMK A01 T02841063  RH  010%=      5-min Rain = 0
KDR1 241805Z 25005G10KT 28/M07 A3002 RMK A01 T02811073  RH  009%=      5-min Rain = 0
KDR1 241810Z 24005G14KT 29/M08 A3001 RMK A01 T02851082  RH  008%=      5-min Rain = 0
KDR1 241815Z 27008KT 29/M08 A3001 RMK A01 T02881082  RH  008%=      5-min Rain = 0
KDR1 241820Z 31003KT 28/M08 A3001 RMK A01 T02811081  RH  009%=      5-min Rain = 0
KDR1 241825Z 19008G14KT 29/M08 A3001 RMK A01 T02881078  RH  009%=      5-min Rain = 0
KDR1 241830Z 19005KT 29/M08 A30 RMK A01 T02861081  RH  009%=      5-min Rain = 0
KDR1 241835Z 25007G17KT 29/M08 A30 RMK A01 T02881084  RH  008%=      5-min Rain = 0
KDR1 241840Z 26009G16KT 29/M09 A30 RMK A01 T02931085  RH  008%=      5-min Rain = 0
KDR1 241845Z 27008G16KT 30/M09 A2999 RMK A01 T02961085  RH  008%=      5-min Rain = 0
KDR1 241850Z 23007G14KT 30/M08 A2999 RMK A01 T02981083  RH  008%=      5-min Rain = 0
KDR1 241855Z 23009G14KT 30/M08 A2999 RMK A01 T02961082  RH  008%=      5-min Rain = 0
KDR1 241900Z 16006G15KT 29/M08 A2998 RMK A01 T02941079  RH  008%=      5-min Rain = 0
KDR1 241905Z 22011G30KT 30/M08 A2998 RMK A01 T02981082  RH  008%=      5-min Rain = 0
KDR1 241910Z 24009KT 30/M09 A2998 RMK A01 T02991085  RH  008%=      5-min Rain = 0
KDR1 241915Z 25009G23KT 30/M08 A2997 RMK A01 T03001084  RH  008%=      5-min Rain = 0
KDR1 241920Z 24013G25KT 31/M08 A2997 RMK A01 T03121084  RH  007%=      5-min Rain = 0
KDR1 241925Z 24014G20KT 31/M09 A2996 RMK A01 T03131088  RH  007%=      5-min Rain = 0
KDR1 241930Z 22014G20KT 31/M09 A2996 RMK A01 T03141091  RH  007%=      5-min Rain = 0
KDR1 241935Z 24016G26KT 31/M09 A2996 RMK A01 T03111090  RH  007%=      5-min Rain = 0
KDR1 241940Z 23009G16KT 30/M09 A2996 RMK A01 T03041089  RH  007%=      5-min Rain = 0
KDR1 241945Z 23012G18KT 30/M09 A2996 RMK A01 T03021094  RH  007%=      5-min Rain = 0
KDR1 241950Z 24009G17KT 30/M10 A2996 RMK A01 T03031103  RH  006%=      5-min Rain = 0
KDR1 241955Z 25009G14KT 30/M10 A2996 RMK A01 T03031098  RH  007%=      5-min Rain = 0
KDR1 242000Z 26008KT 30/M09 A2996 RMK A01 T03021093  RH  007%=      5-min Rain = 0
KDR1 242005Z 25008G13KT 30/M09 A2996 RMK A01 T03021092  RH  007%=      5-min Rain = 0
KDR1 242010Z 21007G15KT 30/M09 A2996 RMK A01 T03011093  RH  007%=      5-min Rain = 0
KDR1 242015Z 22012G24KT 31/M10 A2996 RMK A01 T03101099  RH  006%=      5-min Rain = 0
KDR1 242020Z 23013G18KT 31/M10 A2996 RMK A01 T03141104  RH  006%=      5-min Rain = 0
KDR1 242025Z 23012G21KT 30/M10 A2995 RMK A01 T03041104  RH  006%=      5-min Rain = 0
KDR1 242030Z 24010KT 31/M10 A2995 RMK A01 T03091100  RH  006%=      5-min Rain = 0
KDR1 242035Z 24009G15KT 31/M10 A2995 RMK A01 T03111102  RH  006%=      5-min Rain = 0
KDR1 242040Z 24014G23KT 31/M11 A2995 RMK A01 T03121108  RH  006%=      5-min Rain = 0
KDR1 242045Z 24013G21KT 31/M10 A2995 RMK A01 T03081102  RH  006%=      5-min Rain = 0
KDR1 242050Z 23013G22KT 31/M10 A2994 RMK A01 T03091100  RH  006%=      5-min Rain = 0
KDR1 242055Z 24015KT 32/M10 A2994 RMK A01 T03161099  RH  006%=      5-min Rain = 0
KDR1 242100Z 25011KT 31/M10 A2994 RMK A01 T03101101  RH  006%=      5-min Rain = 0
KDR1 242105Z 25008G15KT 31/M10 A2994 RMK A01 T03081099  RH  006%=      5-min Rain = 0
KDR1 242110Z 23007G14KT 31/M10 A2994 RMK A01 T03101098  RH  006%=      5-min Rain = 0
KDR1 242115Z 22009G17KT 31/M10 A2993 RMK A01 T03081098  RH  007%=      5-min Rain = 0
KDR1 242120Z 23012G17KT 31/M10 A2993 RMK A01 T03141098  RH  006%=      5-min Rain = 0
KDR1 242125Z 25009G14KT 31/M10 A2993 RMK A01 T03111098  RH  006%=      5-min Rain = 0
KDR1 242130Z 23011G18KT 31/M10 A2993 RMK A01 T03131102  RH  006%=      5-min Rain = 0
KDR1 242135Z 23013G19KT 31/M10 A2993 RMK A01 T03141104  RH  006%=      5-min Rain = 0
KDR1 242140Z 24014KT 32/M10 A2992 RMK A01 T03161104  RH  006%=      5-min Rain = 0
KDR1 242145Z 21009G16KT 31/M10 A2992 RMK A01 T03091101  RH  006%=      5-min Rain = 0
KDR1 242150Z 24011G24KT 31/M10 A2992 RMK A01 T03111103  RH  006%=      5-min Rain = 0
KDR1 242155Z 23017G26KT 32/M11 A2991 RMK A01 T03191107  RH  006%=      5-min Rain = 0
KDR1 242200Z 22015G22KT 32/M11 A2991 RMK A01 T03151106  RH  006%=      5-min Rain = 0
KDR1 242205Z 21011G16KT 32/M11 A2991 RMK A01 T03161105  RH  006%=      5-min Rain = 0
KDR1 242210Z 20014G20KT 32/M11 A2991 RMK A01 T03181105  RH  006%=      5-min Rain = 0
KDR1 242215Z 21014G21KT 31/M11 A2991 RMK A01 T03111108  RH  006%=      5-min Rain = 0
KDR1 242220Z 23014G24KT 32/M11 A2991 RMK A01 T03161111  RH  006%=      5-min Rain = 0
KDR1 242225Z 24011G18KT 31/M11 A2991 RMK A01 T03131111  RH  006%=      5-min Rain = 0
KDR1 242230Z 24015G22KT 32/M11 A299 RMK A01 T03171111  RH  006%=      5-min Rain = 0
KDR1 242235Z 23015G22KT 31/M11 A299 RMK A01 T03121112  RH  006%=      5-min Rain = 0
KDR1 242240Z 23013G20KT 31/M11 A299 RMK A01 T03141114  RH  006%=      5-min Rain = 0
KDR1 242245Z 23009KT 31/M12 A299 RMK A01 T03081115  RH  006%=      5-min Rain = 0
KDR1 242250Z 23016KT 31/M12 A299 RMK A01 T03111117  RH  006%=      5-min Rain = 0
KDR1 242255Z 23015G22KT 31/M11 A299 RMK A01 T03101112  RH  006%=      5-min Rain = 0
KDR1 242300Z 23014G19KT 31/M11 A299 RMK A01 T03111108  RH  006%=      5-min Rain = 0
KDR1 242305Z 23014G19KT 31/M11 A299 RMK A01 T03111108  RH  006%=      5-min Rain = 0
KDR1 242310Z 22010G16KT 31/M11 A299 RMK A01 T03091109  RH  006%=      5-min Rain = 0
KDR1 242315Z 22010G17KT 31/M11 A2989 RMK A01 T03091109  RH  006%=      5-min Rain = 0
KDR1 242320Z 22016KT 31/M12 A2989 RMK A01 T03091119  RH  005%=      5-min Rain = 0
KDR1 242325Z 21013G21KT 31/M12 A2989 RMK A01 T03111115  RH  006%=      5-min Rain = 0
KDR1 242330Z 22014KT 31/M11 A2989 RMK A01 T03101111  RH  006%=      5-min Rain = 0
KDR1 242335Z 22011G16KT 31/M11 A2989 RMK A01 T03081109  RH  006%=      5-min Rain = 0
KDR1 242340Z 22014KT 31/M11 A2989 RMK A01 T03101109  RH  006%=      5-min Rain = 0
KDR1 242345Z 22013G19KT 31/M11 A2989 RMK A01 T03061114  RH  006%=      5-min Rain = 0
KDR1 242350Z 23010KT 31/M11 A2989 RMK A01 T03101109  RH  006%=      5-min Rain = 0
KDR1 242355Z 23016KT 31/M11 A2989 RMK A01 T03061112  RH  006%=      5-min Rain = 0
KDR1 250000Z 22014KT 31/M11 A2989 RMK A01 T03051108  RH  006%=      5-min Rain = 0
KDR1 250005Z 21010G15KT 30/M11 A2989 RMK A01 T03011108  RH  006%=      5-min Rain = 0
KDR1 250010Z 22013G19KT 30/M11 A2988 RMK A01 T03021105  RH  006%=      5-min Rain = 0
KDR1 250015Z 23014KT 30/M10 A2988 RMK A01 T03021100  RH  007%=      5-min Rain = 0
KDR1 250020Z 22012G18KT 30/M10 A2988 RMK A01 T02991102  RH  007%=      5-min Rain = 0
KDR1 250025Z 21012KT 30/M10 A2988 RMK A01 T02981100  RH  007%=      5-min Rain = 0
KDR1 250030Z 20014KT 30/M10 A2988 RMK A01 T02981101  RH  007%=      5-min Rain = 0
KDR1 250035Z 19012KT 30/M10 A2988 RMK A01 T02971101  RH  007%=      5-min Rain = 0
KDR1 250040Z 22013G19KT 30/M11 A2988 RMK A01 T02981109  RH  006%=      5-min Rain = 0
KDR1 250045Z 22013G18KT 30/M11 A2988 RMK A01 T02971114  RH  006%=      5-min Rain = 0
KDR1 250050Z 22010KT 30/M11 A2988 RMK A01 T02961111  RH  006%=      5-min Rain = 0
KDR1 250055Z 19010KT 29/M10 A2988 RMK A01 T02941104  RH  007%=      5-min Rain = 0
KDR1 250100Z 19009KT 29/M10 A2988 RMK A01 T02921100  RH  007%=      5-min Rain = 0
KDR1 250105Z 20014KT 29/M10 A2988 RMK A01 T02901098  RH  007%=      5-min Rain = 0
KDR1 250110Z 21013KT 29/M10 A2988 RMK A01 T02881099  RH  007%=      5-min Rain = 0
KDR1 250115Z 21012KT 29/M10 A2988 RMK A01 T02851098  RH  007%=      5-min Rain = 0
KDR1 250120Z 21012KT 28/M10 A2989 RMK A01 T02831098  RH  008%=      5-min Rain = 0
KDR1 250125Z 21010KT 28/M10 A2989 RMK A01 T02801096  RH  008%=      5-min Rain = 0
KDR1 250130Z 21009KT 28/M09 A2989 RMK A01 T02761093  RH  008%=      5-min Rain = 0
KDR1 250135Z 21010KT 27/M09 A2989 RMK A01 T02721092  RH  008%=      5-min Rain = 0
KDR1 250140Z 21010KT 27/M09 A2989 RMK A01 T02661089  RH  009%=      5-min Rain = 0
KDR1 250145Z 20011KT 26/M09 A299 RMK A01 T02621087  RH  009%=      5-min Rain = 0
KDR1 250150Z 20011KT 26/M08 A299 RMK A01 T02571083  RH  010%=      5-min Rain = 0
KDR1 250155Z 20010KT 25/M08 A299 RMK A01 T02481079  RH  011%=      5-min Rain = 0
KDR1 250200Z 20012KT 25/M08 A2991 RMK A01 T02451076  RH  011%=      5-min Rain = 0
KDR1 250205Z 19013KT 24/M07 A2991 RMK A01 T02421073  RH  012%=      5-min Rain = 0
KDR1 250210Z 19013KT 24/M07 A2991 RMK A01 T02391074  RH  012%=      5-min Rain = 0
KDR1 250215Z 19012KT 24/M07 A2991 RMK A01 T02351074  RH  012%=      5-min Rain = 0
KDR1 250220Z 19011KT 23/M07 A2991 RMK A01 T02271074  RH  013%=      5-min Rain = 0
KDR1 250225Z 19011KT 22/M08 A2992 RMK A01 T02201075  RH  013%=      5-min Rain = 0
KDR1 250230Z 18010KT 22/M07 A2992 RMK A01 T02161074  RH  014%=      5-min Rain = 0
KDR1 250235Z 18010KT 21/M07 A2993 RMK A01 T02111072  RH  014%=      5-min Rain = 0
KDR1 250240Z 18010KT 21/M07 A2993 RMK A01 T02051069  RH  015%=      5-min Rain = 0
KDR1 250245Z 18010KT 20/M07 A2993 RMK A01 T01971070  RH  016%=      5-min Rain = 0
KDR1 250250Z 18011KT 20/M07 A2993 RMK A01 T01951069  RH  016%=      5-min Rain = 0
KDR1 250255Z 19011KT 21/M07 A2993 RMK A01 T02051072  RH  015%=      5-min Rain = 0
KDR1 250300Z 19012KT 22/M08 A2993 RMK A01 T02161075  RH  014%=      5-min Rain = 0
KDR1 250305Z 19012KT 22/M08 A2993 RMK A01 T02171076  RH  013%=      5-min Rain = 0
KDR1 250310Z 19012KT 22/M08 A2993 RMK A01 T02151075  RH  014%=      5-min Rain = 0
KDR1 250315Z 19011KT 21/M07 A2993 RMK A01 T02091074  RH  014%=      5-min Rain = 0
KDR1 250320Z 19011KT 20/M07 A2994 RMK A01 T02021074  RH  015%=      5-min Rain = 0
KDR1 250325Z 19011KT 20/M07 A2994 RMK A01 T02001073  RH  015%=      5-min Rain = 0
KDR1 250330Z 17011G16KT 20/M07 A2994 RMK A01 T01951070  RH  016%=      5-min Rain = 0
KDR1 250335Z 17014KT 20/M07 A2995 RMK A01 T01951065  RH  017%=      5-min Rain = 0
KDR1 250340Z 17012KT 19/M06 A2995 RMK A01 T01931058  RH  018%=      5-min Rain = 0
KDR1 250345Z 17011KT 19/M04 A2995 RMK A01 T01871038  RH  022%=      5-min Rain = 0
KDR1 250350Z 17011KT 18/M03 A2996 RMK A01 T01841026  RH  024%=      5-min Rain = 0
KDR1 250355Z 18011KT 18/M01 A2996 RMK A01 T01831009  RH  027%=      5-min Rain = 0
KDR1 250400Z 17012KT 18/00 A2996 RMK A01 T01830002  RH  030%=      5-min Rain = 0
KDR1 250405Z 17011KT 18/02 A2997 RMK A01 T01840019  RH  034%=      5-min Rain = 0
KDR1 250410Z 17012KT 18/04 A2997 RMK A01 T01840037  RH  038%=      5-min Rain = 0
KDR1 250415Z 17012KT 19/08 A2997 RMK A01 T01870075  RH  050%=      5-min Rain = 0
KDR1 250420Z 17014KT 20/13 A2998 RMK A01 T02000129  RH  066%=      5-min Rain = 0
KDR1 250425Z 17016G21KT 21/15 A2998 RMK A01 T02130153  RH  072%=      5-min Rain = 0
KDR1 250430Z 17016KT 21/16 A2998 RMK A01 T02130156  RH  073%=      5-min Rain = 0
KDR1 250435Z 17015KT 21/16 A2999 RMK A01 T02120156  RH  074%=      5-min Rain = 0
KDR1 250440Z 17014KT 21/16 A2999 RMK A01 T02100156  RH  074%=      5-min Rain = 0
KDR1 250445Z 17016G21KT 21/16 A2999 RMK A01 T02100156  RH  075%=      5-min Rain = 0
KDR1 250450Z 18017KT 21/16 A2999 RMK A01 T02100155  RH  074%=      5-min Rain = 0
KDR1 250455Z 18017KT 21/15 A2999 RMK A01 T02090154  RH  074%=      5-min Rain = 0

Page generated in 0.0099 seconds.